sensor_id;sensor_type;location;lat;lon;timestamp;temperature;humidity
2024;DHT22;1016;48.770;9.154;2022-11-20T00:01:15;10.90;99.90
2024;DHT22;1016;48.770;9.154;2022-11-20T00:03:41;10.90;99.90
2024;DHT22;1016;48.770;9.154;2022-11-20T00:06:09;10.90;99.90
2024;DHT22;1016;48.770;9.154;2022-11-20T00:08:36;10.90;99.90
2024;DHT22;1016;48.770;9.154;2022-11-20T00:11:19;10.90;99.90
2024;DHT22;1016;48.770;9.154;2022-11-20T00:13:46;10.90;99.90
2024;DHT22;1016;48.770;9.154;2022-11-20T00:16:14;10.90;99.90
2024;DHT22;1016;48.770;9.154;2022-11-20T00:18:40;10.90;99.90
2024;DHT22;1016;48.770;9.154;2022-11-20T00:21:11;10.80;99.90
2024;DHT22;1016;48.770;9.154;2022-11-20T00:23:37;10.80;99.90
2024;DHT22;1016;48.770;9.154;2022-11-20T00:26:08;10.80;99.90
2024;DHT22;1016;48.770;9.154;2022-11-20T00:28:34;10.80;99.90
2024;DHT22;1016;48.770;9.154;2022-11-20T00:31:05;10.80;99.90
2024;DHT22;1016;48.770;9.154;2022-11-20T00:33:30;10.80;99.90
2024;DHT22;1016;48.770;9.154;2022-11-20T00:36:04;10.80;99.90
2024;DHT22;1016;48.770;9.154;2022-11-20T00:38:31;10.90;99.90
2024;DHT22;1016;48.770;9.154;2022-11-20T00:40:58;10.90;99.90
2024;DHT22;1016;48.770;9.154;2022-11-20T00:43:24;10.90;99.90
2024;DHT22;1016;48.770;9.154;2022-11-20T00:45:50;10.90;99.90
2024;DHT22;1016;48.770;9.154;2022-11-20T00:48:15;10.90;99.90
2024;DHT22;1016;48.770;9.154;2022-11-20T00:50:41;10.90;99.90
2024;DHT22;1016;48.770;9.154;2022-11-20T00:53:07;10.90;99.90
2024;DHT22;1016;48.770;9.154;2022-11-20T00:55:32;10.90;99.90
2024;DHT22;1016;48.770;9.154;2022-11-20T00:57:58;10.90;99.90
2024;DHT22;1016;48.770;9.154;2022-11-20T01:00:23;10.90;99.90
2024;DHT22;1016;48.770;9.154;2022-11-20T01:02:49;10.90;99.90
2024;DHT22;1016;48.770;9.154;2022-11-20T01:05:14;10.90;99.90
2024;DHT22;1016;48.770;9.154;2022-11-20T01:07:40;11.00;99.90
2024;DHT22;1016;48.770;9.154;2022-11-20T01:10:06;10.80;99.90
2024;DHT22;1016;48.770;9.154;2022-11-20T01:12:31;10.70;99.90
2024;DHT22;1016;48.770;9.154;2022-11-20T01:14:57;10.80;99.90
2024;DHT22;1016;48.770;9.154;2022-11-20T01:17:22;10.70;99.90
2024;DHT22;1016;48.770;9.154;2022-11-20T01:19:49;10.70;99.90
2024;DHT22;1016;48.770;9.154;2022-11-20T01:22:15;10.60;99.90
2024;DHT22;1016;48.770;9.154;2022-11-20T01:24:41;10.60;99.90
2024;DHT22;1016;48.770;9.154;2022-11-20T01:27:06;10.50;99.90
2024;DHT22;1016;48.770;9.154;2022-11-20T01:29:32;10.60;99.90
2024;DHT22;1016;48.770;9.154;2022-11-20T01:31:57;10.60;99.90
2024;DHT22;1016;48.770;9.154;2022-11-20T01:34:23;10.50;99.90
2024;DHT22;1016;48.770;9.154;2022-11-20T01:36:49;10.50;99.90
2024;DHT22;1016;48.770;9.154;2022-11-20T01:39:21;10.40;99.90
2024;DHT22;1016;48.770;9.154;2022-11-20T01:41:47;10.40;99.90
2024;DHT22;1016;48.770;9.154;2022-11-20T01:44:54;10.40;99.90
2024;DHT22;1016;48.770;9.154;2022-11-20T01:50:01;10.30;99.90
2024;DHT22;1016;48.770;9.154;2022-11-20T01:52:35;10.20;99.90
2024;DHT22;1016;48.770;9.154;2022-11-20T01:55:06;10.20;99.90
2024;DHT22;1016;48.770;9.154;2022-11-20T01:57:33;10.20;99.90
2024;DHT22;1016;48.770;9.154;2022-11-20T02:00:08;10.20;99.90
2024;DHT22;1016;48.770;9.154;2022-11-20T02:02:35;10.10;99.90
2024;DHT22;1016;48.770;9.154;2022-11-20T02:05:09;10.20;99.90
2024;DHT22;1016;48.770;9.154;2022-11-20T02:07:37;10.20;99.90
2024;DHT22;1016;48.770;9.154;2022-11-20T02:10:03;10.00;99.90
2024;DHT22;1016;48.770;9.154;2022-11-20T02:12:28;10.10;99.90
2024;DHT22;1016;48.770;9.154;2022-11-20T02:15:13;10.00;99.90
2024;DHT22;1016;48.770;9.154;2022-11-20T02:17:38;10.40;99.90
2024;DHT22;1016;48.770;9.154;2022-11-20T02:20:04;10.00;99.90
2024;DHT22;1016;48.770;9.154;2022-11-20T02:22:39;10.10;99.90
2024;DHT22;1016;48.770;9.154;2022-11-20T02:25:09;10.00;99.90
2024;DHT22;1016;48.770;9.154;2022-11-20T02:27:35;10.00;99.90
2024;DHT22;1016;48.770;9.154;2022-11-20T02:30:05;10.00;99.90
2024;DHT22;1016;48.770;9.154;2022-11-20T02:32:35;10.00;99.90
2024;DHT22;1016;48.770;9.154;2022-11-20T02:37:58;10.00;99.90
2024;DHT22;1016;48.770;9.154;2022-11-20T02:40:25;10.00;99.90
2024;DHT22;1016;48.770;9.154;2022-11-20T02:42:55;10.00;99.90
2024;DHT22;1016;48.770;9.154;2022-11-20T02:45:21;10.00;99.90
2024;DHT22;1016;48.770;9.154;2022-11-20T02:47:46;10.00;99.90
2024;DHT22;1016;48.770;9.154;2022-11-20T02:50:12;9.90;99.90
2024;DHT22;1016;48.770;9.154;2022-11-20T02:52:37;9.90;99.90
2024;DHT22;1016;48.770;9.154;2022-11-20T02:55:03;9.90;99.90
2024;DHT22;1016;48.770;9.154;2022-11-20T02:57:29;9.90;99.90
2024;DHT22;1016;48.770;9.154;2022-11-20T02:59:55;9.80;99.90
2024;DHT22;1016;48.770;9.154;2022-11-20T03:02:21;10.00;99.90
2024;DHT22;1016;48.770;9.154;2022-11-20T03:04:46;10.10;99.90
2024;DHT22;1016;48.770;9.154;2022-11-20T03:07:12;9.90;99.90
2024;DHT22;1016;48.770;9.154;2022-11-20T03:09:37;10.00;99.90
2024;DHT22;1016;48.770;9.154;2022-11-20T03:12:03;10.00;99.90
2024;DHT22;1016;48.770;9.154;2022-11-20T03:14:28;10.10;99.90
2024;DHT22;1016;48.770;9.154;2022-11-20T03:16:55;10.10;99.90
2024;DHT22;1016;48.770;9.154;2022-11-20T03:19:21;10.10;99.90
2024;DHT22;1016;48.770;9.154;2022-11-20T03:21:46;10.10;99.90
2024;DHT22;1016;48.770;9.154;2022-11-20T03:24:12;10.10;99.90
2024;DHT22;1016;48.770;9.154;2022-11-20T03:26:38;10.10;99.90
2024;DHT22;1016;48.770;9.154;2022-11-20T03:29:05;10.10;99.90
2024;DHT22;1016;48.770;9.154;2022-11-20T03:31:36;10.10;99.90
2024;DHT22;1016;48.770;9.154;2022-11-20T03:34:03;10.20;99.90
2024;DHT22;1016;48.770;9.154;2022-11-20T03:36:29;10.10;99.90
2024;DHT22;1016;48.770;9.154;2022-11-20T03:38:55;10.10;99.90
2024;DHT22;1016;48.770;9.154;2022-11-20T03:41:23;10.00;99.90
2024;DHT22;1016;48.770;9.154;2022-11-20T03:43:51;9.90;99.90
2024;DHT22;1016;48.770;9.154;2022-11-20T03:46:17;9.90;99.90
2024;DHT22;1016;48.770;9.154;2022-11-20T03:48:43;9.80;99.90
2024;DHT22;1016;48.770;9.154;2022-11-20T03:53:34;9.80;99.90
2024;DHT22;1016;48.770;9.154;2022-11-20T03:55:59;9.80;99.90
2024;DHT22;1016;48.770;9.154;2022-11-20T03:58:25;9.80;99.90
2024;DHT22;1016;48.770;9.154;2022-11-20T04:00:50;9.70;99.90
2024;DHT22;1016;48.770;9.154;2022-11-20T04:03:16;9.60;99.90
2024;DHT22;1016;48.770;9.154;2022-11-20T04:08:07;9.50;99.90
2024;DHT22;1016;48.770;9.154;2022-11-20T04:10:33;9.50;99.90
2024;DHT22;1016;48.770;9.154;2022-11-20T04:12:59;9.40;99.90
2024;DHT22;1016;48.770;9.154;2022-11-20T04:15:24;9.40;99.90
2024;DHT22;1016;48.770;9.154;2022-11-20T04:17:50;9.40;99.90
2024;DHT22;1016;48.770;9.154;2022-11-20T04:20:15;9.40;99.90
2024;DHT22;1016;48.770;9.154;2022-11-20T04:22:41;9.50;99.90
2024;DHT22;1016;48.770;9.154;2022-11-20T04:25:06;9.50;99.90
2024;DHT22;1016;48.770;9.154;2022-11-20T04:27:32;9.50;99.90
2024;DHT22;1016;48.770;9.154;2022-11-20T04:29:58;9.50;99.90
2024;DHT22;1016;48.770;9.154;2022-11-20T04:32:23;9.60;99.90
2024;DHT22;1016;48.770;9.154;2022-11-20T04:34:49;9.60;99.90
2024;DHT22;1016;48.770;9.154;2022-11-20T04:37:14;9.60;99.90
2024;DHT22;1016;48.770;9.154;2022-11-20T04:39:40;9.70;99.90
2024;DHT22;1016;48.770;9.154;2022-11-20T04:42:05;9.60;99.90
2024;DHT22;1016;48.770;9.154;2022-11-20T04:44:49;9.60;99.90
2024;DHT22;1016;48.770;9.154;2022-11-20T04:47:15;9.60;99.90
2024;DHT22;1016;48.770;9.154;2022-11-20T04:49:40;9.60;99.90
2024;DHT22;1016;48.770;9.154;2022-11-20T04:52:06;9.60;99.90
2024;DHT22;1016;48.770;9.154;2022-11-20T04:54:31;9.50;99.90
2024;DHT22;1016;48.770;9.154;2022-11-20T04:56:57;9.60;99.90
2024;DHT22;1016;48.770;9.154;2022-11-20T04:59:22;9.60;99.90
2024;DHT22;1016;48.770;9.154;2022-11-20T05:01:48;9.60;99.90
2024;DHT22;1016;48.770;9.154;2022-11-20T05:04:13;9.70;99.90
2024;DHT22;1016;48.770;9.154;2022-11-20T05:06:39;9.50;99.90
2024;DHT22;1016;48.770;9.154;2022-11-20T05:09:04;9.40;99.90
2024;DHT22;1016;48.770;9.154;2022-11-20T05:11:31;9.40;99.90
2024;DHT22;1016;48.770;9.154;2022-11-20T05:13:58;9.40;99.90
2024;DHT22;1016;48.770;9.154;2022-11-20T05:16:24;9.50;99.90
2024;DHT22;1016;48.770;9.154;2022-11-20T05:18:51;9.60;99.90
2024;DHT22;1016;48.770;9.154;2022-11-20T05:21:17;9.60;99.90
2024;DHT22;1016;48.770;9.154;2022-11-20T05:23:43;9.70;99.90
2024;DHT22;1016;48.770;9.154;2022-11-20T05:26:15;9.80;99.90
2024;DHT22;1016;48.770;9.154;2022-11-20T05:28:41;9.80;99.90
2024;DHT22;1016;48.770;9.154;2022-11-20T05:31:07;9.80;99.90
2024;DHT22;1016;48.770;9.154;2022-11-20T05:33:34;9.80;99.90
2024;DHT22;1016;48.770;9.154;2022-11-20T05:36:01;9.80;99.90
2024;DHT22;1016;48.770;9.154;2022-11-20T05:38:27;9.80;99.90
2024;DHT22;1016;48.770;9.154;2022-11-20T05:40:52;9.80;99.90
2024;DHT22;1016;48.770;9.154;2022-11-20T05:43:18;9.90;99.90
2024;DHT22;1016;48.770;9.154;2022-11-20T05:45:52;9.90;99.90
2024;DHT22;1016;48.770;9.154;2022-11-20T05:48:17;9.90;99.90
2024;DHT22;1016;48.770;9.154;2022-11-20T05:50:43;10.10;99.90
2024;DHT22;1016;48.770;9.154;2022-11-20T05:53:08;10.00;99.90
2024;DHT22;1016;48.770;9.154;2022-11-20T05:55:34;10.00;99.90
2024;DHT22;1016;48.770;9.154;2022-11-20T05:57:59;9.90;99.90
2024;DHT22;1016;48.770;9.154;2022-11-20T06:00:25;10.00;99.90
2024;DHT22;1016;48.770;9.154;2022-11-20T06:02:50;10.10;99.90
2024;DHT22;1016;48.770;9.154;2022-11-20T06:05:16;10.00;99.90
2024;DHT22;1016;48.770;9.154;2022-11-20T06:07:41;10.00;99.90
2024;DHT22;1016;48.770;9.154;2022-11-20T06:10:07;10.00;99.90
2024;DHT22;1016;48.770;9.154;2022-11-20T06:12:32;10.00;99.90
2024;DHT22;1016;48.770;9.154;2022-11-20T06:14:58;10.00;99.90
2024;DHT22;1016;48.770;9.154;2022-11-20T06:17:24;10.10;99.90
2024;DHT22;1016;48.770;9.154;2022-11-20T06:19:50;10.10;99.90
2024;DHT22;1016;48.770;9.154;2022-11-20T06:22:15;10.10;99.90
2024;DHT22;1016;48.770;9.154;2022-11-20T06:24:40;10.10;99.90
2024;DHT22;1016;48.770;9.154;2022-11-20T06:27:06;10.10;99.90
2024;DHT22;1016;48.770;9.154;2022-11-20T06:29:31;10.10;99.90
2024;DHT22;1016;48.770;9.154;2022-11-20T06:31:57;10.10;99.90
2024;DHT22;1016;48.770;9.154;2022-11-20T06:34:22;10.10;99.90
2024;DHT22;1016;48.770;9.154;2022-11-20T06:36:48;10.10;99.90
2024;DHT22;1016;48.770;9.154;2022-11-20T06:39:13;10.10;99.90
2024;DHT22;1016;48.770;9.154;2022-11-20T06:41:39;10.20;99.90
2024;DHT22;1016;48.770;9.154;2022-11-20T06:44:05;10.20;99.90
2024;DHT22;1016;48.770;9.154;2022-11-20T06:46:31;10.30;99.90
2024;DHT22;1016;48.770;9.154;2022-11-20T06:48:56;10.20;99.90
2024;DHT22;1016;48.770;9.154;2022-11-20T06:51:23;10.20;99.90
2024;DHT22;1016;48.770;9.154;2022-11-20T06:53:48;10.20;99.90
2024;DHT22;1016;48.770;9.154;2022-11-20T06:56:14;10.20;99.90
2024;DHT22;1016;48.770;9.154;2022-11-20T06:58:40;10.20;99.90
2024;DHT22;1016;48.770;9.154;2022-11-20T07:01:08;10.20;99.90
2024;DHT22;1016;48.770;9.154;2022-11-20T07:03:34;10.20;99.90
2024;DHT22;1016;48.770;9.154;2022-11-20T07:06:01;10.20;99.90
2024;DHT22;1016;48.770;9.154;2022-11-20T07:08:27;10.10;99.90
2024;DHT22;1016;48.770;9.154;2022-11-20T07:10:56;10.10;99.90
2024;DHT22;1016;48.770;9.154;2022-11-20T07:13:22;10.30;99.90
2024;DHT22;1016;48.770;9.154;2022-11-20T07:15:47;10.10;99.90
2024;DHT22;1016;48.770;9.154;2022-11-20T07:18:12;10.10;99.90
2024;DHT22;1016;48.770;9.154;2022-11-20T07:20:38;10.10;99.90
2024;DHT22;1016;48.770;9.154;2022-11-20T07:23:03;10.10;99.90
2024;DHT22;1016;48.770;9.154;2022-11-20T07:25:29;10.10;99.90
2024;DHT22;1016;48.770;9.154;2022-11-20T07:27:59;10.20;99.90
2024;DHT22;1016;48.770;9.154;2022-11-20T07:30:27;10.20;99.90
2024;DHT22;1016;48.770;9.154;2022-11-20T07:32:53;10.20;99.90
2024;DHT22;1016;48.770;9.154;2022-11-20T07:35:19;10.20;99.90
2024;DHT22;1016;48.770;9.154;2022-11-20T07:37:45;10.20;99.90
2024;DHT22;1016;48.770;9.154;2022-11-20T07:40:15;10.20;99.90
2024;DHT22;1016;48.770;9.154;2022-11-20T07:42:48;10.10;99.90
2024;DHT22;1016;48.770;9.154;2022-11-20T07:45:14;10.10;99.90
2024;DHT22;1016;48.770;9.154;2022-11-20T07:47:39;10.00;99.90
2024;DHT22;1016;48.770;9.154;2022-11-20T07:50:05;10.10;99.90
2024;DHT22;1016;48.770;9.154;2022-11-20T07:52:31;10.10;99.90
2024;DHT22;1016;48.770;9.154;2022-11-20T07:54:56;10.10;99.90
2024;DHT22;1016;48.770;9.154;2022-11-20T07:57:22;10.30;99.90
2024;DHT22;1016;48.770;9.154;2022-11-20T07:59:47;10.10;99.90
2024;DHT22;1016;48.770;9.154;2022-11-20T08:02:13;10.20;99.90
2024;DHT22;1016;48.770;9.154;2022-11-20T08:04:38;10.30;99.90
2024;DHT22;1016;48.770;9.154;2022-11-20T08:07:04;10.50;99.90
2024;DHT22;1016;48.770;9.154;2022-11-20T08:09:29;10.40;99.90
2024;DHT22;1016;48.770;9.154;2022-11-20T08:11:54;10.40;99.90
2024;DHT22;1016;48.770;9.154;2022-11-20T08:14:38;10.40;99.90
2024;DHT22;1016;48.770;9.154;2022-11-20T08:17:04;10.50;99.90
2024;DHT22;1016;48.770;9.154;2022-11-20T08:19:29;10.60;99.90
2024;DHT22;1016;48.770;9.154;2022-11-20T08:21:55;10.60;99.90
2024;DHT22;1016;48.770;9.154;2022-11-20T08:24:21;10.60;99.90
2024;DHT22;1016;48.770;9.154;2022-11-20T08:26:46;10.70;99.90
2024;DHT22;1016;48.770;9.154;2022-11-20T08:29:12;10.70;99.90
2024;DHT22;1016;48.770;9.154;2022-11-20T08:31:37;10.60;99.90
2024;DHT22;1016;48.770;9.154;2022-11-20T08:34:03;10.60;99.90
2024;DHT22;1016;48.770;9.154;2022-11-20T08:36:29;10.60;99.90
2024;DHT22;1016;48.770;9.154;2022-11-20T08:38:57;10.70;99.90
2024;DHT22;1016;48.770;9.154;2022-11-20T08:41:23;10.70;99.90
2024;DHT22;1016;48.770;9.154;2022-11-20T08:43:50;10.70;99.90
2024;DHT22;1016;48.770;9.154;2022-11-20T08:46:16;10.80;99.90
2024;DHT22;1016;48.770;9.154;2022-11-20T08:48:41;10.80;99.90
2024;DHT22;1016;48.770;9.154;2022-11-20T08:51:07;10.80;99.90
2024;DHT22;1016;48.770;9.154;2022-11-20T08:53:33;10.80;99.90
2024;DHT22;1016;48.770;9.154;2022-11-20T08:55:58;10.80;99.90
2024;DHT22;1016;48.770;9.154;2022-11-20T08:58:25;10.90;99.90
2024;DHT22;1016;48.770;9.154;2022-11-20T09:00:50;10.90;99.90
2024;DHT22;1016;48.770;9.154;2022-11-20T09:03:16;11.00;99.90
2024;DHT22;1016;48.770;9.154;2022-11-20T09:05:41;11.10;99.90
2024;DHT22;1016;48.770;9.154;2022-11-20T09:08:08;11.10;99.90
2024;DHT22;1016;48.770;9.154;2022-11-20T09:10:33;11.10;99.90
2024;DHT22;1016;48.770;9.154;2022-11-20T09:12:59;11.10;99.90
2024;DHT22;1016;48.770;9.154;2022-11-20T09:15:25;11.10;99.90
2024;DHT22;1016;48.770;9.154;2022-11-20T09:17:55;11.20;99.90
2024;DHT22;1016;48.770;9.154;2022-11-20T09:20:21;11.20;99.90
2024;DHT22;1016;48.770;9.154;2022-11-20T09:22:47;11.10;99.90
2024;DHT22;1016;48.770;9.154;2022-11-20T09:25:12;11.10;99.90
2024;DHT22;1016;48.770;9.154;2022-11-20T09:27:38;11.30;99.90
2024;DHT22;1016;48.770;9.154;2022-11-20T09:30:04;11.20;99.90
2024;DHT22;1016;48.770;9.154;2022-11-20T09:32:30;11.30;99.90
2024;DHT22;1016;48.770;9.154;2022-11-20T09:34:55;11.30;99.90
2024;DHT22;1016;48.770;9.154;2022-11-20T09:37:21;11.30;99.90
2024;DHT22;1016;48.770;9.154;2022-11-20T09:39:46;11.30;99.90
2024;DHT22;1016;48.770;9.154;2022-11-20T09:42:37;11.30;99.90
2024;DHT22;1016;48.770;9.154;2022-11-20T09:54:17;11.20;99.90
2024;DHT22;1016;48.770;9.154;2022-11-20T09:56:53;11.30;99.90
2024;DHT22;1016;48.770;9.154;2022-11-20T10:01:55;11.40;99.90
2024;DHT22;1016;48.770;9.154;2022-11-20T10:04:21;11.30;99.90
2024;DHT22;1016;48.770;9.154;2022-11-20T10:07:04;11.40;99.90
2024;DHT22;1016;48.770;9.154;2022-11-20T10:09:38;11.30;99.90
2024;DHT22;1016;48.770;9.154;2022-11-20T10:12:31;11.30;99.90
2024;DHT22;1016;48.770;9.154;2022-11-20T10:15:03;11.30;99.90
2024;DHT22;1016;48.770;9.154;2022-11-20T10:17:50;11.40;99.90
2024;DHT22;1016;48.770;9.154;2022-11-20T10:20:33;11.30;99.90
2024;DHT22;1016;48.770;9.154;2022-11-20T10:26:12;11.30;99.90
2024;DHT22;1016;48.770;9.154;2022-11-20T10:29:12;11.20;99.90
2024;DHT22;1016;48.770;9.154;2022-11-20T10:31:54;11.10;99.90
2024;DHT22;1016;48.770;9.154;2022-11-20T10:34:28;11.10;99.90
2024;DHT22;1016;48.770;9.154;2022-11-20T10:37:08;11.10;99.90
2024;DHT22;1016;48.770;9.154;2022-11-20T10:42:30;11.10;99.90
2024;DHT22;1016;48.770;9.154;2022-11-20T10:47:43;10.90;99.90
2024;DHT22;1016;48.770;9.154;2022-11-20T10:50:17;11.00;99.90
2024;DHT22;1016;48.770;9.154;2022-11-20T10:53:16;11.00;99.90
2024;DHT22;1016;48.770;9.154;2022-11-20T10:55:57;11.10;99.90
2024;DHT22;1016;48.770;9.154;2022-11-20T11:01:41;11.10;99.90
2024;DHT22;1016;48.770;9.154;2022-11-20T11:06:58;11.10;99.90
2024;DHT22;1016;48.770;9.154;2022-11-20T11:09:36;11.10;99.90
2024;DHT22;1016;48.770;9.154;2022-11-20T11:12:08;11.10;99.90
2024;DHT22;1016;48.770;9.154;2022-11-20T11:14:43;11.10;99.90
2024;DHT22;1016;48.770;9.154;2022-11-20T11:17:22;11.10;99.90
2024;DHT22;1016;48.770;9.154;2022-11-20T11:22:47;11.00;99.90
2024;DHT22;1016;48.770;9.154;2022-11-20T11:25:34;11.10;99.90
2024;DHT22;1016;48.770;9.154;2022-11-20T11:28:03;11.00;99.90
2024;DHT22;1016;48.770;9.154;2022-11-20T11:30:30;11.00;99.90
2024;DHT22;1016;48.770;9.154;2022-11-20T11:33:04;11.10;99.90
2024;DHT22;1016;48.770;9.154;2022-11-20T11:35:30;11.10;99.90
2024;DHT22;1016;48.770;9.154;2022-11-20T11:38:11;11.20;99.90
2024;DHT22;1016;48.770;9.154;2022-11-20T11:40:39;11.30;99.90
2024;DHT22;1016;48.770;9.154;2022-11-20T11:43:16;11.20;99.90
2024;DHT22;1016;48.770;9.154;2022-11-20T11:46:02;11.30;99.90
2024;DHT22;1016;48.770;9.154;2022-11-20T11:48:31;11.30;99.90
2024;DHT22;1016;48.770;9.154;2022-11-20T11:50:56;11.30;99.90
2024;DHT22;1016;48.770;9.154;2022-11-20T11:53:23;11.40;99.90
2024;DHT22;1016;48.770;9.154;2022-11-20T11:56:09;11.50;99.90
2024;DHT22;1016;48.770;9.154;2022-11-20T11:58:51;11.40;99.90
2024;DHT22;1016;48.770;9.154;2022-11-20T12:01:37;11.40;99.90
2024;DHT22;1016;48.770;9.154;2022-11-20T12:07:20;11.40;99.90
2024;DHT22;1016;48.770;9.154;2022-11-20T12:09:51;11.40;99.90
2024;DHT22;1016;48.770;9.154;2022-11-20T12:12:24;11.50;99.90
2024;DHT22;1016;48.770;9.154;2022-11-20T12:14:53;11.40;99.90
2024;DHT22;1016;48.770;9.154;2022-11-20T12:17:20;11.40;99.90
2024;DHT22;1016;48.770;9.154;2022-11-20T12:19:46;11.50;99.90
2024;DHT22;1016;48.770;9.154;2022-11-20T12:22:32;11.60;99.90
2024;DHT22;1016;48.770;9.154;2022-11-20T12:25:22;11.60;99.90
2024;DHT22;1016;48.770;9.154;2022-11-20T12:28:08;11.60;99.90
2024;DHT22;1016;48.770;9.154;2022-11-20T12:33:54;11.70;99.90
2024;DHT22;1016;48.770;9.154;2022-11-20T12:36:44;11.70;99.90
2024;DHT22;1016;48.770;9.154;2022-11-20T12:39:34;11.70;99.90
2024;DHT22;1016;48.770;9.154;2022-11-20T12:50:49;11.70;99.90
2024;DHT22;1016;48.770;9.154;2022-11-20T13:02:56;11.60;99.90
2024;DHT22;1016;48.770;9.154;2022-11-20T13:08:01;11.60;99.90
2024;DHT22;1016;48.770;9.154;2022-11-20T13:10:51;11.60;99.90
2024;DHT22;1016;48.770;9.154;2022-11-20T13:16:33;11.70;99.90
2024;DHT22;1016;48.770;9.154;2022-11-20T13:19:03;11.70;99.90
2024;DHT22;1016;48.770;9.154;2022-11-20T13:21:36;11.80;99.90
2024;DHT22;1016;48.770;9.154;2022-11-20T13:27:05;11.80;99.90
2024;DHT22;1016;48.770;9.154;2022-11-20T13:29:32;11.80;99.90
2024;DHT22;1016;48.770;9.154;2022-11-20T13:32:17;11.70;99.90
2024;DHT22;1016;48.770;9.154;2022-11-20T13:34:55;11.60;99.90
2024;DHT22;1016;48.770;9.154;2022-11-20T13:37:39;11.70;99.90
2024;DHT22;1016;48.770;9.154;2022-11-20T13:40:21;11.80;99.90
2024;DHT22;1016;48.770;9.154;2022-11-20T13:43:01;11.90;99.90
2024;DHT22;1016;48.770;9.154;2022-11-20T13:45:29;11.90;99.90
2024;DHT22;1016;48.770;9.154;2022-11-20T13:47:56;11.80;99.90
2024;DHT22;1016;48.770;9.154;2022-11-20T13:50:38;11.70;99.90
2024;DHT22;1016;48.770;9.154;2022-11-20T13:53:26;11.80;99.90
2024;DHT22;1016;48.770;9.154;2022-11-20T13:56:00;11.70;99.90
2024;DHT22;1016;48.770;9.154;2022-11-20T14:01:49;11.40;99.90
2024;DHT22;1016;48.770;9.154;2022-11-20T14:04:30;11.20;99.90
2024;DHT22;1016;48.770;9.154;2022-11-20T14:06:58;11.20;99.90
2024;DHT22;1016;48.770;9.154;2022-11-20T14:09:28;11.10;99.90
2024;DHT22;1016;48.770;9.154;2022-11-20T14:11:54;11.10;99.90
2024;DHT22;1016;48.770;9.154;2022-11-20T14:14:22;11.10;99.90
2024;DHT22;1016;48.770;9.154;2022-11-20T14:16:49;11.20;99.90
2024;DHT22;1016;48.770;9.154;2022-11-20T14:21:52;11.20;99.90
2024;DHT22;1016;48.770;9.154;2022-11-20T14:24:23;11.20;99.90
2024;DHT22;1016;48.770;9.154;2022-11-20T14:26:49;11.10;99.90
2024;DHT22;1016;48.770;9.154;2022-11-20T14:29:26;11.10;99.90
2024;DHT22;1016;48.770;9.154;2022-11-20T14:31:53;11.10;99.90
2024;DHT22;1016;48.770;9.154;2022-11-20T14:34:25;11.10;99.90
2024;DHT22;1016;48.770;9.154;2022-11-20T14:37:00;11.20;99.90
2024;DHT22;1016;48.770;9.154;2022-11-20T14:39:34;11.30;99.90
2024;DHT22;1016;48.770;9.154;2022-11-20T14:42:01;11.30;99.90
2024;DHT22;1016;48.770;9.154;2022-11-20T14:44:30;11.40;99.90
2024;DHT22;1016;48.770;9.154;2022-11-20T14:46:57;11.50;99.90
2024;DHT22;1016;48.770;9.154;2022-11-20T14:49:23;11.50;99.90
2024;DHT22;1016;48.770;9.154;2022-11-20T14:52:02;11.50;99.90
2024;DHT22;1016;48.770;9.154;2022-11-20T14:54:28;11.40;99.90
2024;DHT22;1016;48.770;9.154;2022-11-20T14:57:00;11.40;99.90
2024;DHT22;1016;48.770;9.154;2022-11-20T14:59:32;11.50;99.90
2024;DHT22;1016;48.770;9.154;2022-11-20T15:02:09;11.40;99.90
2024;DHT22;1016;48.770;9.154;2022-11-20T15:04:49;11.40;99.90
2024;DHT22;1016;48.770;9.154;2022-11-20T15:07:34;11.50;99.90
2024;DHT22;1016;48.770;9.154;2022-11-20T15:10:19;11.50;99.90
2024;DHT22;1016;48.770;9.154;2022-11-20T15:12:51;11.50;99.90
2024;DHT22;1016;48.770;9.154;2022-11-20T15:15:23;11.40;99.90
2024;DHT22;1016;48.770;9.154;2022-11-20T15:17:50;11.40;99.90
2024;DHT22;1016;48.770;9.154;2022-11-20T15:20:17;11.40;99.90
2024;DHT22;1016;48.770;9.154;2022-11-20T15:22:42;11.40;99.90
2024;DHT22;1016;48.770;9.154;2022-11-20T15:25:12;11.50;99.90
2024;DHT22;1016;48.770;9.154;2022-11-20T15:27:38;11.50;99.90
2024;DHT22;1016;48.770;9.154;2022-11-20T15:30:16;11.60;99.90
2024;DHT22;1016;48.770;9.154;2022-11-20T15:32:42;11.40;99.90
2024;DHT22;1016;48.770;9.154;2022-11-20T15:35:09;11.40;99.90
2024;DHT22;1016;48.770;9.154;2022-11-20T15:37:35;11.30;99.90
2024;DHT22;1016;48.770;9.154;2022-11-20T15:40:01;11.30;99.90
2024;DHT22;1016;48.770;9.154;2022-11-20T15:42:26;11.30;99.90
2024;DHT22;1016;48.770;9.154;2022-11-20T15:44:52;11.30;99.90
2024;DHT22;1016;48.770;9.154;2022-11-20T15:47:18;11.20;99.90
2024;DHT22;1016;48.770;9.154;2022-11-20T15:49:45;11.20;99.90
2024;DHT22;1016;48.770;9.154;2022-11-20T15:52:10;11.20;99.90
2024;DHT22;1016;48.770;9.154;2022-11-20T15:54:36;11.20;99.90
2024;DHT22;1016;48.770;9.154;2022-11-20T15:57:02;11.20;99.90
2024;DHT22;1016;48.770;9.154;2022-11-20T15:59:28;11.10;99.90
2024;DHT22;1016;48.770;9.154;2022-11-20T16:01:53;11.00;99.90
2024;DHT22;1016;48.770;9.154;2022-11-20T16:04:19;11.00;99.90
2024;DHT22;1016;48.770;9.154;2022-11-20T16:06:44;10.90;99.90
2024;DHT22;1016;48.770;9.154;2022-11-20T16:09:10;10.90;99.90
2024;DHT22;1016;48.770;9.154;2022-11-20T16:11:36;10.90;99.90
2024;DHT22;1016;48.770;9.154;2022-11-20T16:14:03;10.90;99.90
2024;DHT22;1016;48.770;9.154;2022-11-20T16:16:47;10.90;99.90
2024;DHT22;1016;48.770;9.154;2022-11-20T16:19:13;10.90;99.90
2024;DHT22;1016;48.770;9.154;2022-11-20T16:21:40;10.80;99.90
2024;DHT22;1016;48.770;9.154;2022-11-20T16:24:08;10.80;99.90
2024;DHT22;1016;48.770;9.154;2022-11-20T16:26:34;10.80;99.90
2024;DHT22;1016;48.770;9.154;2022-11-20T16:29:01;10.80;99.90
2024;DHT22;1016;48.770;9.154;2022-11-20T16:31:28;10.70;99.90
2024;DHT22;1016;48.770;9.154;2022-11-20T16:33:55;10.70;99.90
2024;DHT22;1016;48.770;9.154;2022-11-20T16:36:23;10.70;99.90
2024;DHT22;1016;48.770;9.154;2022-11-20T16:38:53;10.80;99.90
2024;DHT22;1016;48.770;9.154;2022-11-20T16:41:19;10.80;99.90
2024;DHT22;1016;48.770;9.154;2022-11-20T16:43:52;10.80;99.90
2024;DHT22;1016;48.770;9.154;2022-11-20T16:46:21;10.80;99.90
2024;DHT22;1016;48.770;9.154;2022-11-20T16:48:54;10.90;99.90
2024;DHT22;1016;48.770;9.154;2022-11-20T16:51:20;10.90;99.90
2024;DHT22;1016;48.770;9.154;2022-11-20T16:53:45;11.00;99.90
2024;DHT22;1016;48.770;9.154;2022-11-20T16:56:16;11.00;99.90
2024;DHT22;1016;48.770;9.154;2022-11-20T16:58:43;11.00;99.90
2024;DHT22;1016;48.770;9.154;2022-11-20T17:01:11;11.10;99.90
2024;DHT22;1016;48.770;9.154;2022-11-20T17:03:37;11.10;99.90
2024;DHT22;1016;48.770;9.154;2022-11-20T17:06:21;11.10;99.90
2024;DHT22;1016;48.770;9.154;2022-11-20T17:08:47;11.10;99.90
2024;DHT22;1016;48.770;9.154;2022-11-20T17:11:15;11.20;99.90
2024;DHT22;1016;48.770;9.154;2022-11-20T17:13:41;11.10;99.90
2024;DHT22;1016;48.770;9.154;2022-11-20T17:16:10;11.10;99.90
2024;DHT22;1016;48.770;9.154;2022-11-20T17:18:36;11.20;99.90
2024;DHT22;1016;48.770;9.154;2022-11-20T17:21:02;11.20;99.90
2024;DHT22;1016;48.770;9.154;2022-11-20T17:23:37;11.20;99.90
2024;DHT22;1016;48.770;9.154;2022-11-20T17:26:09;11.20;99.90
2024;DHT22;1016;48.770;9.154;2022-11-20T17:28:35;11.20;99.90
2024;DHT22;1016;48.770;9.154;2022-11-20T17:31:03;11.20;99.90
2024;DHT22;1016;48.770;9.154;2022-11-20T17:33:29;11.10;99.90
2024;DHT22;1016;48.770;9.154;2022-11-20T17:35:55;11.10;99.90